createdAt,value
2019-04-26T00:01:18.386Z,3.70
2019-04-26T00:03:48.778Z,4.60
2019-04-26T00:06:18.600Z,4.57
2019-04-26T00:08:49.036Z,4.70
2019-04-26T00:11:25.341Z,4.20
2019-04-26T00:14:01.458Z,4.10
2019-04-26T00:16:31.707Z,4.50
2019-04-26T00:19:00.400Z,4.33
2019-04-26T00:21:29.284Z,4.30
2019-04-26T00:23:58.180Z,4.70
2019-04-26T00:26:27.216Z,3.97
2019-04-26T00:28:55.822Z,4.10
2019-04-26T00:31:24.588Z,4.47
2019-04-26T00:33:53.215Z,4.07
2019-04-26T00:36:22.815Z,4.50
2019-04-26T00:38:51.495Z,4.00
2019-04-26T00:41:22.658Z,4.40
2019-04-26T00:43:51.643Z,4.10
2019-04-26T00:46:23.054Z,4.00
2019-04-26T00:48:54.388Z,3.87
2019-04-26T00:51:23.807Z,4.30
2019-04-26T00:53:54.140Z,4.60
2019-04-26T00:56:24.618Z,4.67
2019-04-26T00:58:54.444Z,4.57
2019-04-26T01:01:25.012Z,4.30
2019-04-26T01:03:53.533Z,3.83
2019-04-26T01:06:23.744Z,4.93
2019-04-26T01:08:52.371Z,4.20
2019-04-26T01:11:21.788Z,4.60
2019-04-26T01:13:50.418Z,4.97
2019-04-26T01:16:20.126Z,4.53
2019-04-26T01:18:50.534Z,4.40
2019-04-26T01:21:22.601Z,4.70
2019-04-26T01:23:53.917Z,4.07
2019-04-26T01:26:28.415Z,4.47
2019-04-26T01:29:00.058Z,5.30
2019-04-26T01:31:31.352Z,4.33
2019-04-26T01:36:47.588Z,4.43
2019-04-26T01:39:19.676Z,4.20
2019-04-26T01:42:06.429Z,4.20
2019-04-26T01:44:39.733Z,4.17
2019-04-26T01:47:08.565Z,4.13
2019-04-26T01:49:37.391Z,4.07
2019-04-26T01:52:09.047Z,4.33
2019-04-26T01:54:45.534Z,4.57
2019-04-26T01:57:15.483Z,4.83
2019-04-26T01:59:49.146Z,4.33
2019-04-26T02:02:22.762Z,4.67
2019-04-26T02:04:55.200Z,4.03
2019-04-26T02:07:34.431Z,4.27
2019-04-26T02:10:03.154Z,4.87
2019-04-26T02:12:31.748Z,4.70
2019-04-26T02:15:00.467Z,4.83
2019-04-26T02:17:29.348Z,4.37
2019-04-26T02:19:58.192Z,4.40
2019-04-26T02:22:37.239Z,4.97
2019-04-26T02:25:06.631Z,4.47
2019-04-26T02:27:35.584Z,5.00
2019-04-26T02:30:06.883Z,4.80
2019-04-26T02:32:37.060Z,4.97
2019-04-26T02:35:07.188Z,4.50
2019-04-26T02:37:37.952Z,4.60
2019-04-26T02:40:15.469Z,5.00
2019-04-26T02:43:05.879Z,4.93
2019-04-26T02:46:04.894Z,5.30
2019-04-26T02:49:17.530Z,5.80
2019-04-26T03:15:13.157Z,5.40
2019-04-26T03:17:45.595Z,6.33
2019-04-26T03:34:02.025Z,5.20
2019-04-26T03:36:56.603Z,5.83
2019-04-26T03:39:42.891Z,5.80
2019-04-26T03:42:29.719Z,5.50
2019-04-26T03:45:16.283Z,5.93
2019-04-26T03:47:53.744Z,7.03
2019-04-26T03:50:28.220Z,8.20
2019-04-26T03:53:16.354Z,6.63
2019-04-26T03:55:49.623Z,7.03
2019-04-26T03:58:37.747Z,6.10
2019-04-26T04:01:09.937Z,5.73
2019-04-26T04:03:47.576Z,4.80
2019-04-26T04:06:21.045Z,5.23
2019-04-26T04:08:55.661Z,5.73
2019-04-26T04:11:27.337Z,5.60
2019-04-26T04:14:10.138Z,5.13
2019-04-26T04:17:06.822Z,4.77
2019-04-26T04:19:54.336Z,5.80
2019-04-26T04:22:26.100Z,4.90
2019-04-26T04:25:12.718Z,4.53
2019-04-26T04:27:47.943Z,4.73
2019-04-26T04:30:20.576Z,4.40
2019-04-26T04:32:58.092Z,4.37
2019-04-26T04:35:30.056Z,4.97
2019-04-26T04:38:16.527Z,4.57
2019-04-26T04:40:53.438Z,4.50
2019-04-26T04:43:32.630Z,4.93
2019-04-26T04:46:49.163Z,4.00
2019-04-26T04:49:48.981Z,4.60
2019-04-26T04:52:49.962Z,3.90
2019-04-26T04:55:21.904Z,4.73
2019-04-26T04:58:16.059Z,4.23
2019-04-26T05:01:28.605Z,4.07
2019-04-26T05:04:30.484Z,4.83
2019-04-26T05:07:18.151Z,4.40
2019-04-26T05:10:06.075Z,4.60
2019-04-26T05:12:40.416Z,4.23
2019-04-26T05:15:36.588Z,4.27
2019-04-26T05:18:17.088Z,4.40
2019-04-26T05:21:09.705Z,4.40
2019-04-26T05:23:50.986Z,4.33
2019-04-26T05:26:39.364Z,4.60
2019-04-26T05:29:27.766Z,4.67
2019-04-26T05:32:05.271Z,4.60
2019-04-26T05:34:43.982Z,7.63
2019-04-26T05:37:41.499Z,4.33
2019-04-26T05:40:24.918Z,5.10
2019-04-26T05:43:09.897Z,4.20
2019-04-26T05:46:14.936Z,4.30
2019-04-26T05:49:20.080Z,3.57
2019-04-26T05:52:18.640Z,3.87
2019-04-26T05:55:09.749Z,4.37
2019-04-26T05:57:45.712Z,3.90
2019-04-26T06:00:24.831Z,4.00
2019-04-26T06:03:26.974Z,4.77
2019-04-26T06:06:05.308Z,3.63
2019-04-26T06:08:51.171Z,3.57
2019-04-26T06:11:24.996Z,4.00
2019-04-26T06:14:13.311Z,3.33
2019-04-26T06:17:33.686Z,3.70
2019-04-26T06:20:23.149Z,3.90
2019-04-26T06:23:13.664Z,3.53
2019-04-26T06:26:04.670Z,3.30
2019-04-26T06:28:47.939Z,3.33
2019-04-26T06:31:24.825Z,3.50
2019-04-26T06:34:03.009Z,3.50
2019-04-26T06:36:36.439Z,3.70
2019-04-26T06:39:15.347Z,3.13
2019-04-26T06:42:05.203Z,3.40
2019-04-26T06:44:41.337Z,3.57
2019-04-26T06:47:26.484Z,3.30
2019-04-26T06:50:10.957Z,3.70
2019-04-26T06:52:51.142Z,3.20
2019-04-26T06:55:30.099Z,4.70
2019-04-26T06:58:09.213Z,3.70
2019-04-26T07:01:01.089Z,3.40
2019-04-26T07:03:32.827Z,3.20
2019-04-26T07:06:04.561Z,3.33
2019-04-26T07:08:38.673Z,3.70
2019-04-26T07:11:31.427Z,3.20
2019-04-26T07:14:11.894Z,3.10
2019-04-26T07:16:52.151Z,3.23
2019-04-26T07:19:31.152Z,3.40
2019-04-26T07:22:35.491Z,3.17
2019-04-26T07:25:38.175Z,2.90
2019-04-26T07:28:12.705Z,2.97
2019-04-26T07:30:47.164Z,3.10
2019-04-26T07:33:56.592Z,2.70
2019-04-26T07:37:01.790Z,2.80
2019-04-26T07:40:07.748Z,2.93
2019-04-26T07:43:11.105Z,3.10
2019-04-26T07:46:16.267Z,2.93
2019-04-26T07:48:56.627Z,3.17
2019-04-26T07:51:44.906Z,3.57
2019-04-26T07:54:42.216Z,3.60
2019-04-26T07:57:50.199Z,3.43
2019-04-26T08:00:26.553Z,3.43
2019-04-26T08:03:15.134Z,3.40
2019-04-26T08:05:58.672Z,3.60
2019-04-26T08:08:30.351Z,3.50
2019-04-26T08:11:11.401Z,3.60
2019-04-26T08:13:45.761Z,3.40
2019-04-26T08:16:19.284Z,3.20
2019-04-26T08:19:01.711Z,3.63
2019-04-26T08:21:36.875Z,3.43
2019-04-26T08:24:12.389Z,3.57
2019-04-26T08:26:44.080Z,3.40
2019-04-26T08:29:17.456Z,3.40
2019-04-26T08:31:49.092Z,3.77
2019-04-26T08:34:28.895Z,3.67
2019-04-26T08:37:06.660Z,3.60
2019-04-26T08:39:45.698Z,3.53
2019-04-26T08:42:18.256Z,3.30
2019-04-26T08:45:04.300Z,3.03
2019-04-26T08:47:33.716Z,3.23
2019-04-26T08:50:13.078Z,3.73
2019-04-26T08:52:43.184Z,3.07
2019-04-26T08:55:13.320Z,3.67
2019-04-26T08:57:44.119Z,3.50
2019-04-26T09:00:22.001Z,3.53
2019-04-26T09:03:11.558Z,3.20
2019-04-26T09:05:45.692Z,3.27
2019-04-26T09:08:16.829Z,3.30
2019-04-26T09:10:48.622Z,3.50
2019-04-26T09:13:19.864Z,3.50
2019-04-26T09:16:06.780Z,3.30
2019-04-26T09:18:42.943Z,4.00
2019-04-26T09:21:06.280Z,3.97
2019-04-26T09:23:54.397Z,3.53
2019-04-26T09:26:24.667Z,3.13
2019-04-26T09:29:04.017Z,3.13
2019-04-26T09:31:54.496Z,2.97
2019-04-26T09:34:25.981Z,3.17
2019-04-26T09:36:54.582Z,2.97
2019-04-26T09:39:23.432Z,3.30
2019-04-26T09:41:53.633Z,4.10
2019-04-26T09:44:37.618Z,3.23
2019-04-26T09:47:10.917Z,3.53
2019-04-26T09:49:42.201Z,3.77
2019-04-26T09:52:27.876Z,3.60
2019-04-26T09:54:56.440Z,3.57
2019-04-26T09:57:25.012Z,3.50
2019-04-26T09:59:53.587Z,3.80
2019-04-26T10:02:22.211Z,20.53
2019-04-26T10:04:50.817Z,9.50
2019-04-26T10:07:19.370Z,8.17
2019-04-26T10:09:51.540Z,6.13
2019-04-26T10:12:25.455Z,4.07
2019-04-26T10:15:01.526Z,3.93
2019-04-26T10:17:31.729Z,4.37
2019-04-26T10:20:00.290Z,5.57
2019-04-26T10:22:30.580Z,6.17
2019-04-26T10:25:02.514Z,4.40
2019-04-26T10:27:29.360Z,4.83
2019-04-26T10:30:07.715Z,3.53
2019-04-26T10:32:28.626Z,4.03
2019-04-26T10:34:57.173Z,4.17
2019-04-26T10:37:38.754Z,4.50
2019-04-26T10:39:56.837Z,4.43
2019-04-26T10:42:25.413Z,4.20
2019-04-26T10:44:53.967Z,4.27
2019-04-26T10:47:22.544Z,4.80
2019-04-26T10:49:54.390Z,4.30
2019-04-26T10:52:35.187Z,4.00
2019-04-26T10:55:22.055Z,4.60
2019-04-26T10:57:55.896Z,4.90
2019-04-26T11:00:26.534Z,4.73
2019-04-26T11:02:55.104Z,4.60
2019-04-26T11:05:23.724Z,4.47
2019-04-26T11:07:53.505Z,4.70
2019-04-26T11:10:24.317Z,5.27
2019-04-26T11:12:52.411Z,4.70
2019-04-26T11:15:21.111Z,5.47
2019-04-26T11:17:50.117Z,5.57
2019-04-26T11:20:19.537Z,5.30
2019-04-26T11:22:48.171Z,5.07
2019-04-26T11:25:16.751Z,5.23
2019-04-26T11:27:48.548Z,5.93
2019-04-26T11:30:20.824Z,5.70
2019-04-26T11:32:47.226Z,5.63
2019-04-26T11:35:15.845Z,5.20
2019-04-26T11:37:46.347Z,5.30
2019-04-26T11:40:15.854Z,5.93
2019-04-26T11:42:45.759Z,6.20
2019-04-26T11:45:16.113Z,5.27
2019-04-26T11:47:55.439Z,6.37
2019-04-26T11:50:16.229Z,6.40
2019-04-26T11:52:45.027Z,6.43
2019-04-26T11:55:14.979Z,6.47
2019-04-26T11:57:47.016Z,5.77
2019-04-26T12:00:15.883Z,6.27
2019-04-26T12:02:46.280Z,5.50
2019-04-26T12:05:16.736Z,6.33
2019-04-26T12:07:57.764Z,6.73
2019-04-26T12:10:27.206Z,5.90
2019-04-26T12:13:05.121Z,6.77
2019-04-26T12:15:30.316Z,6.57
2019-04-26T12:17:58.877Z,6.47
2019-04-26T12:20:28.188Z,6.73
2019-04-26T12:22:56.811Z,5.63
2019-04-26T12:25:25.375Z,5.33
2019-04-26T12:27:54.040Z,5.10
2019-04-26T12:30:26.406Z,5.33
2019-04-26T12:32:53.009Z,5.30
2019-04-26T12:35:21.562Z,5.00
2019-04-26T12:37:50.716Z,4.80
2019-04-26T12:40:20.418Z,4.00
2019-04-26T12:42:49.035Z,4.10
2019-04-26T12:45:25.752Z,4.10
2019-04-26T12:47:55.977Z,5.53
2019-04-26T12:50:24.622Z,6.83
2019-04-26T12:52:55.677Z,3.70
2019-04-26T12:55:23.604Z,3.50
2019-04-26T12:57:52.175Z,3.67
2019-04-26T13:00:22.528Z,3.47
2019-04-26T13:02:54.331Z,3.70
2019-04-26T13:05:21.436Z,3.40
2019-04-26T13:07:54.109Z,3.50
2019-04-26T13:10:39.814Z,4.00
2019-04-26T13:13:25.296Z,3.60
2019-04-26T13:16:10.712Z,4.00
2019-04-26T13:18:41.257Z,3.90
2019-04-26T13:21:09.634Z,3.80
2019-04-26T13:23:38.220Z,3.73
2019-04-26T13:26:06.778Z,3.50
2019-04-26T13:28:35.380Z,3.40
2019-04-26T13:31:03.920Z,3.43
2019-04-26T13:33:32.476Z,3.70
2019-04-26T13:36:03.101Z,3.90
2019-04-26T13:38:31.252Z,3.20
2019-04-26T13:41:04.625Z,3.50
2019-04-26T13:43:30.182Z,3.03
2019-04-26T13:46:00.396Z,3.20
2019-04-26T13:48:30.601Z,3.70
2019-04-26T13:51:06.576Z,2.87
2019-04-26T13:53:35.120Z,3.20
2019-04-26T13:56:03.905Z,3.30
2019-04-26T13:58:32.684Z,3.20
2019-04-26T14:01:02.304Z,3.10
2019-04-26T14:03:31.809Z,3.70
2019-04-26T14:06:01.080Z,3.17
2019-04-26T14:08:29.632Z,3.40
2019-04-26T14:10:58.280Z,3.07
2019-04-26T14:13:26.833Z,3.63
2019-04-26T14:15:55.481Z,3.63
2019-04-26T14:18:24.109Z,3.70
2019-04-26T14:20:54.629Z,3.40
2019-04-26T14:23:24.595Z,3.60
2019-04-26T14:25:57.524Z,3.33
2019-04-26T14:28:26.086Z,4.03
2019-04-26T14:30:54.823Z,3.67
2019-04-26T14:33:23.376Z,3.90
2019-04-26T14:35:52.160Z,4.27
2019-04-26T14:38:27.656Z,3.80
2019-04-26T14:41:03.300Z,3.83
2019-04-26T14:43:22.266Z,3.60
2019-04-26T14:45:56.040Z,3.70
2019-04-26T14:48:35.115Z,3.10
2019-04-26T14:50:53.356Z,3.50
2019-04-26T14:53:22.115Z,3.97
2019-04-26T14:55:51.247Z,4.67
2019-04-26T14:58:25.376Z,5.83
2019-04-26T15:00:58.646Z,4.20
2019-04-26T15:03:41.132Z,3.97
2019-04-26T15:06:16.785Z,4.40
2019-04-26T15:08:47.288Z,4.27
2019-04-26T15:11:14.711Z,4.80
2019-04-26T15:13:43.762Z,4.07
2019-04-26T15:16:14.269Z,5.83
2019-04-26T15:18:42.771Z,5.47
2019-04-26T15:21:12.923Z,4.20
2019-04-26T15:23:41.628Z,4.37
2019-04-26T15:26:10.203Z,4.40
2019-04-26T15:28:38.757Z,4.57
2019-04-26T15:31:07.324Z,4.10
2019-04-26T15:33:36.202Z,4.60
2019-04-26T15:36:06.484Z,4.80
2019-04-26T15:38:41.410Z,3.80
2019-04-26T15:41:11.805Z,4.30
2019-04-26T15:43:39.910Z,3.70
2019-04-26T15:46:12.402Z,3.70
2019-04-26T15:48:43.032Z,5.00
2019-04-26T15:51:13.011Z,6.73
2019-04-26T15:53:43.509Z,3.80
2019-04-26T15:56:16.211Z,4.17
2019-04-26T15:58:45.897Z,5.03
2019-04-26T16:01:13.820Z,4.70
2019-04-26T16:03:44.620Z,4.47
2019-04-26T16:06:12.944Z,3.60
2019-04-26T16:08:43.798Z,3.70
2019-04-26T16:11:12.479Z,4.17
2019-04-26T16:13:45.154Z,3.90
2019-04-26T16:16:12.632Z,4.50
2019-04-26T16:18:42.989Z,3.67
2019-04-26T16:21:17.671Z,3.37
2019-04-26T16:23:51.062Z,3.77
2019-04-26T16:26:12.768Z,3.33
2019-04-26T16:28:46.996Z,3.73
2019-04-26T16:31:23.015Z,3.07
2019-04-26T16:34:10.493Z,3.40
2019-04-26T16:36:36.718Z,3.70
2019-04-26T16:39:09.388Z,3.37
2019-04-26T16:41:38.284Z,3.40
2019-04-26T16:44:07.052Z,3.37
2019-04-26T16:46:35.621Z,3.37
2019-04-26T16:49:06.252Z,3.40
2019-04-26T16:51:37.292Z,3.60
2019-04-26T16:54:10.172Z,3.10
2019-04-26T16:56:36.548Z,3.10
2019-04-26T16:59:05.199Z,3.03
2019-04-26T17:01:38.191Z,4.43
2019-04-26T17:04:06.097Z,4.50
2019-04-26T17:06:34.164Z,3.63
2019-04-26T17:09:05.207Z,3.57
2019-04-26T17:11:35.052Z,3.63
2019-04-26T17:14:04.806Z,3.97
2019-04-26T17:16:38.024Z,4.47
2019-04-26T17:19:04.515Z,4.17
2019-04-26T17:21:34.795Z,3.80
2019-04-26T17:24:08.490Z,4.40
2019-04-26T17:26:36.868Z,4.80
2019-04-26T17:29:05.508Z,4.37
2019-04-26T17:31:34.206Z,4.40
2019-04-26T17:34:03.281Z,4.40
2019-04-26T17:36:34.416Z,4.37
2019-04-26T17:39:04.917Z,7.20
2019-04-26T17:41:33.507Z,4.23
2019-04-26T17:44:08.316Z,4.83
2019-04-26T17:46:32.611Z,10.63
2019-04-26T17:49:01.406Z,5.30
2019-04-26T17:51:32.560Z,4.73
2019-04-26T17:54:21.254Z,4.60
2019-04-26T17:56:31.401Z,3.93
2019-04-26T17:59:04.552Z,3.93
2019-04-26T18:01:43.143Z,4.30
2019-04-26T18:04:01.154Z,4.10
2019-04-26T18:06:30.197Z,3.80
2019-04-26T18:08:59.032Z,4.00
2019-04-26T18:11:27.588Z,4.60
2019-04-26T18:13:56.159Z,5.30
2019-04-26T18:16:29.162Z,5.23
2019-04-26T18:19:13.023Z,5.23
2019-04-26T18:21:49.660Z,5.03
2019-04-26T18:24:16.165Z,4.73
2019-04-26T18:26:44.708Z,4.80
2019-04-26T18:29:13.283Z,4.00
2019-04-26T18:31:43.749Z,4.27
2019-04-26T18:34:12.807Z,4.37
2019-04-26T18:36:42.916Z,4.60
2019-04-26T18:39:11.618Z,4.83
2019-04-26T18:41:40.287Z,4.83
2019-04-26T18:44:08.935Z,5.80
2019-04-26T18:46:47.137Z,4.70
2019-04-26T18:49:20.023Z,5.23
2019-04-26T18:51:48.456Z,4.30
2019-04-26T18:54:32.862Z,4.20
2019-04-26T18:57:03.258Z,4.30
2019-04-26T18:59:33.985Z,4.97
2019-04-26T19:02:03.812Z,4.57
2019-04-26T19:04:33.585Z,5.00
2019-04-26T19:07:02.388Z,5.10
2019-04-26T19:09:32.762Z,7.13
2019-04-26T19:12:01.745Z,12.10
2019-04-26T19:14:50.266Z,13.73
2019-04-26T19:17:33.837Z,6.63
2019-04-26T19:20:20.772Z,5.10
2019-04-26T19:22:53.648Z,3.90
2019-04-26T19:25:23.882Z,4.23
2019-04-26T19:31:33.553Z,4.70
2019-04-26T19:34:02.095Z,6.50
2019-04-26T19:36:30.742Z,5.70
2019-04-26T19:38:59.299Z,5.30
2019-04-26T19:41:27.935Z,4.43
2019-04-26T19:43:56.489Z,4.53
2019-04-26T19:46:26.749Z,5.03
2019-04-26T19:48:56.903Z,5.27
2019-04-26T19:51:29.820Z,5.33
2019-04-26T19:54:16.317Z,4.80
2019-04-26T19:56:51.221Z,5.20
2019-04-26T20:03:01.980Z,5.47
2019-04-26T20:05:31.993Z,8.17
2019-04-26T20:08:04.577Z,7.90
2019-04-26T20:10:34.592Z,5.87
2019-04-26T20:13:02.592Z,5.47
2019-04-26T20:15:31.874Z,5.83
2019-04-26T20:18:03.702Z,6.20
2019-04-26T20:20:34.677Z,5.43
2019-04-26T20:23:05.914Z,5.43
2019-04-26T20:25:31.285Z,5.60
2019-04-26T20:28:00.946Z,5.77
2019-04-26T20:30:34.120Z,5.77
2019-04-26T20:33:02.778Z,6.60
2019-04-26T20:35:31.889Z,6.13
2019-04-26T20:38:04.530Z,5.63
2019-04-26T20:40:30.841Z,6.33
2019-04-26T20:43:03.267Z,5.77
2019-04-26T20:45:39.683Z,6.00
2019-04-26T20:48:00.115Z,7.33
2019-04-26T20:50:32.921Z,8.03
2019-04-26T20:53:01.055Z,7.10
2019-04-26T20:55:30.707Z,6.33
2019-04-26T20:58:05.772Z,8.63
2019-04-26T21:00:31.647Z,11.47
2019-04-26T21:03:05.846Z,9.17
2019-04-26T21:05:44.752Z,9.90
2019-04-26T21:08:03.362Z,6.20
2019-04-26T21:10:41.584Z,6.93
2019-04-26T21:13:12.212Z,6.70
2019-04-26T21:15:53.496Z,7.20
2019-04-26T21:18:12.408Z,8.40
2019-04-26T21:20:42.479Z,6.67
2019-04-26T21:23:15.378Z,6.60
2019-04-26T21:25:48.929Z,7.87
2019-04-26T21:28:19.214Z,7.33
2019-04-26T21:30:55.354Z,7.20
2019-04-26T21:33:28.704Z,6.97
2019-04-26T21:36:01.998Z,6.47
2019-04-26T21:38:40.858Z,7.47
2019-04-26T21:41:23.604Z,7.40
2019-04-26T21:43:53.261Z,7.10
2019-04-26T21:46:23.017Z,6.70
2019-04-26T21:48:53.279Z,6.67
2019-04-26T21:51:22.957Z,6.87
2019-04-26T21:53:52.936Z,7.43
2019-04-26T21:56:23.352Z,7.67
2019-04-26T21:58:53.302Z,7.60
2019-04-26T22:01:24.911Z,7.60
2019-04-26T22:03:57.029Z,7.30
2019-04-26T22:06:25.064Z,7.73
2019-04-26T22:08:59.409Z,7.23
2019-04-26T22:11:28.857Z,7.03
2019-04-26T22:14:05.176Z,7.53
2019-04-26T22:16:37.961Z,7.90
2019-04-26T22:19:12.727Z,7.13
2019-04-26T22:22:03.351Z,6.80
2019-04-26T22:24:34.015Z,7.43
2019-04-26T22:27:03.843Z,7.77
2019-04-26T22:29:33.340Z,6.23
2019-04-26T22:32:03.692Z,7.07
2019-04-26T22:34:32.374Z,7.80
2019-04-26T22:37:09.877Z,7.83
2019-04-26T22:39:39.415Z,7.80
2019-04-26T22:42:02.852Z,8.50
2019-04-26T22:44:34.635Z,8.27
2019-04-26T22:47:11.048Z,8.80
2019-04-26T22:49:41.613Z,9.00
2019-04-26T22:52:11.178Z,8.40
2019-04-26T22:54:42.796Z,7.87
2019-04-26T22:57:13.134Z,9.13
2019-04-26T22:59:43.262Z,8.07
2019-04-26T23:02:13.768Z,8.47
2019-04-26T23:04:42.637Z,8.27
2019-04-26T23:07:13.558Z,7.87
2019-04-26T23:09:47.418Z,8.27
2019-04-26T23:12:28.276Z,7.93
2019-04-26T23:14:58.023Z,8.10
2019-04-26T23:17:43.981Z,8.13
2019-04-26T23:20:14.315Z,8.37
2019-04-26T23:22:42.884Z,8.23
2019-04-26T23:25:11.472Z,8.30
2019-04-26T23:27:40.108Z,8.83
2019-04-26T23:30:08.889Z,9.07
2019-04-26T23:32:37.442Z,8.67
2019-04-26T23:35:06.622Z,8.27
2019-04-26T23:37:35.249Z,8.83
2019-04-26T23:40:04.752Z,8.57
2019-04-26T23:42:33.310Z,7.97
2019-04-26T23:45:04.478Z,8.70
2019-04-26T23:47:37.806Z,8.90
2019-04-26T23:50:03.638Z,7.53
2019-04-26T23:52:33.249Z,8.20
2019-04-26T23:55:07.312Z,8.83
2019-04-26T23:57:36.032Z,9.83
